Time;durP1;ratioP1;P1;durP2;ratioP2;P2;SDS_P1;SDS_P2;PMS_P1;PMS_P2;Temp;Humidity;BMP_temperature;BMP_pressure;BME280_temperature;BME280_humidity;BME280_pressure;Samples;Min_cycle;Max_cycle;Signal;HPM_P1;HPM_P2
2023/09/27 00:01:49;;;;;;;6.95;6.35;;;;;;;13.40;100.00;101806.94;5048059;28;20025;-66
2023/09/27 00:04:14;;;;;;;6.93;6.30;;;;;;;13.36;100.00;101812.91;5048402;28;20107;-66
2023/09/27 00:06:39;;;;;;;6.53;5.93;;;;;;;13.31;100.00;101820.50;5047998;28;20223;-65
2023/09/27 00:09:04;;;;;;;6.55;5.82;;;;;;;13.30;100.00;101820.47;5048044;28;20083;-64
2023/09/27 00:11:30;;;;;;;7.85;5.95;;;;;;;13.28;100.00;101816.91;5045900;28;20021;-66
2023/09/27 00:13:55;;;;;;;8.98;5.85;;;;;;;13.25;100.00;101827.22;5048330;28;20118;-65
2023/09/27 00:16:20;;;;;;;6.50;5.90;;;;;;;13.23;100.00;101824.56;5047575;28;20025;-66
2023/09/27 00:18:46;;;;;;;6.53;5.97;;;;;;;13.21;100.00;101827.13;5048077;28;20029;-65
2023/09/27 00:21:11;;;;;;;6.32;5.80;;;;;;;13.18;100.00;101823.50;5045728;28;20013;-66
2023/09/27 00:23:37;;;;;;;7.65;5.90;;;;;;;13.16;100.00;101823.47;5047321;28;20108;-65
2023/09/27 00:26:02;;;;;;;6.10;5.50;;;;;;;13.14;100.00;101824.22;5046280;28;20016;-66
2023/09/27 00:28:27;;;;;;;7.65;6.20;;;;;;;13.12;100.00;101825.88;5047347;28;20135;-64
2023/09/27 00:30:53;;;;;;;7.03;6.07;;;;;;;13.11;100.00;101812.00;5046497;28;20017;-65
2023/09/27 00:33:18;;;;;;;6.78;6.18;;;;;;;13.09;100.00;101813.66;5047343;28;20075;-65
2023/09/27 00:35:49;;;;;;;7.18;5.78;;;;;;;13.08;100.00;101815.34;5046594;28;20035;-66
2023/09/27 00:38:15;;;;;;;7.85;5.80;;;;;;;13.07;100.00;101818.81;5036559;28;20107;-65
2023/09/27 00:40:50;;;;;;;7.45;6.30;;;;;;;13.03;100.00;101814.31;5028056;28;20497;-65
2023/09/27 00:43:30;;;;;;;6.65;6.05;;;;;;;13.03;100.00;101826.41;5028534;28;20028;-66
2023/09/27 00:45:59;;;;;;;9.70;6.20;;;;;;;13.02;100.00;101819.44;5028492;28;20056;-66
2023/09/27 00:48:25;;;;;;;6.70;6.00;;;;;;;13.02;100.00;101816.84;5029023;28;20105;-66
2023/09/27 00:50:52;;;;;;;6.93;6.30;;;;;;;13.01;100.00;101812.47;5027910;28;20106;-66
2023/09/27 00:53:17;;;;;;;6.57;6.00;;;;;;;12.97;100.00;101817.56;5028840;28;20405;-65
2023/09/27 00:55:43;;;;;;;5.45;5.05;;;;;;;12.93;100.00;101813.06;5028100;28;20120;-66
2023/09/27 00:58:09;;;;;;;6.60;5.80;;;;;;;12.89;100.00;101811.19;5028088;28;20025;-65
2023/09/27 01:00:35;;;;;;;6.80;6.10;;;;;;;12.89;100.00;101806.00;5028761;28;20107;-65
2023/09/27 01:03:01;;;;;;;6.25;5.75;;;;;;;12.83;100.00;101808.34;5028664;28;20096;-65
2023/09/27 01:05:26;;;;;;;6.93;6.25;;;;;;;12.81;100.00;101821.28;5028120;28;20013;-65
2023/09/27 01:07:51;;;;;;;8.27;6.28;;;;;;;12.77;100.00;101813.31;5028454;28;20057;-65
2023/09/27 01:10:16;;;;;;;7.30;6.20;;;;;;;12.77;100.00;101808.13;5027938;28;20021;-65
2023/09/27 01:12:42;;;;;;;7.85;6.50;;;;;;;12.76;100.00;101803.72;5027597;28;20408;-65
2023/09/27 01:15:07;;;;;;;8.63;6.00;;;;;;;12.73;100.00;101810.63;5027625;28;20414;-65
2023/09/27 01:17:33;;;;;;;7.32;6.72;;;;;;;12.69;100.00;101806.09;5027984;28;20189;-63
2023/09/27 01:19:59;;;;;;;6.78;6.20;;;;;;;12.68;100.00;101814.72;5028317;28;20030;-66
2023/09/27 01:22:24;;;;;;;6.63;5.88;;;;;;;12.66;100.00;101808.59;5028130;28;20592;-65
2023/09/27 01:24:50;;;;;;;7.65;6.43;;;;;;;12.64;100.00;101792.03;5028059;28;20106;-65
2023/09/27 01:27:16;;;;;;;10.15;6.72;;;;;;;12.63;100.00;101792.84;5027442;28;20496;-65
2023/09/27 01:29:42;;;;;;;7.00;6.18;;;;;;;12.63;100.00;101784.19;5027892;28;20024;-65
2023/09/27 01:32:07;;;;;;;7.50;6.32;;;;;;;12.61;100.00;101787.59;5027856;28;20034;-65
2023/09/27 01:34:32;;;;;;;7.03;6.32;;;;;;;12.59;100.00;101773.66;5028082;28;20489;-64
2023/09/27 01:36:58;;;;;;;7.05;6.35;;;;;;;12.56;100.00;101772.66;5031897;28;20025;-66
2023/09/27 01:39:24;;;;;;;7.20;6.50;;;;;;;12.53;100.00;101773.44;5037717;28;20099;-66
2023/09/27 01:41:49;;;;;;;7.53;6.82;;;;;;;12.51;100.00;101768.97;5051468;28;20021;-65
2023/09/27 01:44:14;;;;;;;8.75;7.25;;;;;;;12.51;100.00;101763.78;5031575;28;20032;-66
2023/09/27 01:46:40;;;;;;;7.25;6.65;;;;;;;12.52;100.00;101760.38;5030094;28;20492;-66
2023/09/27 01:49:05;;;;;;;9.32;6.50;;;;;;;12.50;100.00;101765.53;5049359;28;20037;-65
2023/09/27 01:51:31;;;;;;;7.60;6.80;;;;;;;12.50;100.00;101770.72;5050231;28;20029;-65
2023/09/27 01:53:56;;;;;;;8.00;7.20;;;;;;;12.49;100.00;101780.22;5050188;28;20039;-65
2023/09/27 01:56:21;;;;;;;7.45;6.85;;;;;;;12.49;100.00;101781.94;5032056;28;20025;-66
2023/09/27 01:58:47;;;;;;;8.60;7.80;;;;;;;12.51;100.00;101774.19;5048718;28;20032;-65
2023/09/27 02:01:12;;;;;;;7.68;6.97;;;;;;;12.50;100.00;101783.72;5050550;28;20135;-64
2023/09/27 02:03:37;;;;;;;7.60;6.90;;;;;;;12.51;100.00;101787.19;5049574;28;20031;-66
2023/09/27 02:06:03;;;;;;;7.93;6.93;;;;;;;12.47;100.00;101784.47;5048765;28;20078;-65
2023/09/27 02:08:28;;;;;;;7.38;6.68;;;;;;;12.45;100.00;101783.50;5049766;28;20138;-64
2023/09/27 02:10:53;;;;;;;9.95;7.55;;;;;;;12.43;100.00;101781.69;5050080;28;20063;-65
2023/09/27 02:13:18;;;;;;;8.30;7.50;;;;;;;12.40;100.00;101772.06;5049740;28;20013;-65
2023/09/27 02:15:44;;;;;;;9.50;8.20;;;;;;;12.38;100.00;101768.50;5050259;28;20017;-65
2023/09/27 02:18:09;;;;;;;8.73;7.80;;;;;;;12.35;100.00;101773.59;5048017;28;20465;-64
2023/09/27 02:20:34;;;;;;;9.88;8.20;;;;;;;12.33;100.00;101770.03;5049449;28;20087;-65
2023/09/27 02:23:00;;;;;;;8.25;7.43;;;;;;;12.30;100.00;101769.91;5049121;28;20271;-65
2023/09/27 02:25:25;;;;;;;9.00;7.47;;;;;;;12.29;100.00;101773.34;5050029;28;20075;-65
2023/09/27 02:27:50;;;;;;;8.15;7.45;;;;;;;12.27;100.00;101775.00;5048767;28;20039;-65
2023/09/27 02:30:16;;;;;;;8.73;7.88;;;;;;;12.24;100.00;101776.66;5038164;28;20127;-65
2023/09/27 02:32:43;;;;;;;8.57;7.68;;;;;;;12.22;100.00;101778.28;5030051;28;20041;-65
2023/09/27 02:35:09;;;;;;;8.43;7.65;;;;;;;12.20;100.00;101760.84;5041441;28;20025;-64
2023/09/27 02:37:36;;;;;;;7.43;6.72;;;;;;;12.19;100.00;101770.38;5031002;28;20163;-65
2023/09/27 02:40:11;;;;;;;8.43;7.68;;;;;;;12.19;100.00;101778.19;5041345;28;20404;-65
2023/09/27 02:42:40;;;;;;;8.43;7.63;;;;;;;12.22;100.00;101773.09;5035455;28;20013;-65
2023/09/27 02:45:08;;;;;;;8.60;7.53;;;;;;;12.20;100.00;101779.94;5047865;28;20017;-66
2023/09/27 02:47:33;;;;;;;7.95;7.20;;;;;;;12.16;100.00;101778.03;5023492;28;20069;-65
2023/09/27 02:49:58;;;;;;;7.90;7.20;;;;;;;12.12;100.00;101766.63;5048836;28;20024;-65
2023/09/27 02:52:23;;;;;;;8.43;7.70;;;;;;;12.11;100.00;101774.38;5048964;28;20094;-66
2023/09/27 02:54:49;;;;;;;8.07;7.28;;;;;;;12.09;100.00;101781.16;5048595;28;20450;-63
2023/09/27 02:57:14;;;;;;;8.55;7.75;;;;;;;12.05;100.00;101777.59;5048590;28;20021;-65
2023/09/27 02:59:40;;;;;;;7.75;7.05;;;;;;;12.05;100.00;101775.00;5049046;28;20507;-63
2023/09/27 03:02:06;;;;;;;8.82;7.97;;;;;;;12.05;100.00;101774.09;5048603;28;20024;-65
2023/09/27 03:04:31;;;;;;;7.82;6.63;;;;;;;12.03;100.00;101768.84;5047938;28;20029;-65
2023/09/27 03:06:56;;;;;;;7.18;6.50;;;;;;;12.03;100.00;101775.75;5047792;28;20044;-65
2023/09/27 03:09:22;;;;;;;8.40;7.15;;;;;;;12.00;100.00;101777.38;5047242;28;20036;-65
2023/09/27 03:11:47;;;;;;;8.20;7.40;;;;;;;11.98;100.00;101773.84;5047003;28;20029;-64
2023/09/27 03:14:13;;;;;;;8.90;8.00;;;;;;;11.96;100.00;101767.69;5046546;28;20099;-65
2023/09/27 03:16:39;;;;;;;8.73;7.82;;;;;;;11.97;100.00;101769.47;5039188;28;20033;-65
2023/09/27 03:19:04;;;;;;;9.75;8.32;;;;;;;11.96;100.00;101770.28;5034298;28;20020;-65
2023/09/27 03:21:29;;;;;;;9.20;7.68;;;;;;;11.93;100.00;101771.88;5047089;28;20492;-66
2023/09/27 03:23:55;;;;;;;7.70;7.00;;;;;;;11.91;100.00;101779.59;5047147;28;20102;-64
2023/09/27 03:26:22;;;;;;;8.65;7.95;;;;;;;11.89;100.00;101776.06;5046695;28;20021;-65
2023/09/27 03:28:50;;;;;;;9.20;8.30;;;;;;;11.86;100.00;101776.81;5047257;28;20021;-65
2023/09/27 03:31:15;;;;;;;8.40;7.60;;;;;;;11.82;100.00;101777.50;5046843;28;20036;-65
2023/09/27 03:33:40;;;;;;;8.32;7.53;;;;;;;11.79;100.00;101786.88;5046657;28;20032;-65
2023/09/27 03:36:07;;;;;;;8.48;7.78;;;;;;;11.76;100.00;101793.72;5047206;28;20021;-65
2023/09/27 03:38:32;;;;;;;8.25;7.45;;;;;;;11.77;100.00;101795.50;5034734;28;20521;-65
2023/09/27 03:40:57;;;;;;;8.38;7.47;;;;;;;11.75;100.00;101791.94;5046950;28;20031;-65
2023/09/27 03:43:22;;;;;;;8.77;7.15;;;;;;;11.74;100.00;101797.97;5047918;28;20424;-65
2023/09/27 03:45:49;;;;;;;8.50;7.70;;;;;;;11.72;100.00;101801.31;5047921;28;20021;-66
2023/09/27 03:48:15;;;;;;;8.10;7.38;;;;;;;11.71;100.00;101800.41;5048099;28;20035;-64
2023/09/27 03:50:40;;;;;;;9.48;8.68;;;;;;;11.69;100.00;101790.81;5047154;28;20021;-65
2023/09/27 03:53:05;;;;;;;8.77;7.97;;;;;;;11.63;100.00;101784.53;5047780;28;20098;-64
2023/09/27 03:55:31;;;;;;;8.93;7.45;;;;;;;11.60;100.00;101783.50;5046814;28;20029;-65
2023/09/27 03:57:57;;;;;;;8.20;7.50;;;;;;;11.58;100.00;101777.38;5047348;28;20107;-64
2023/09/27 04:00:22;;;;;;;10.18;7.65;;;;;;;11.57;100.00;101775.56;5047889;28;20021;-65
2023/09/27 04:02:48;;;;;;;8.88;7.97;;;;;;;11.55;100.00;101774.66;5035748;28;20502;-66
2023/09/27 04:05:15;;;;;;;10.25;7.95;;;;;;;11.55;100.00;101777.25;5040753;28;20029;-65
2023/09/27 04:07:40;;;;;;;8.85;7.00;;;;;;;11.50;100.00;101788.31;5039641;28;20529;-65
2023/09/27 04:10:09;;;;;;;9.07;7.57;;;;;;;11.49;100.00;101796.91;5029045;28;20256;-65
2023/09/27 04:12:35;;;;;;;8.57;7.68;;;;;;;11.46;100.00;101806.28;5028294;28;20535;-65
2023/09/27 04:15:00;;;;;;;7.95;7.35;;;;;;;11.43;100.00;101809.63;5028022;28;20253;-65
2023/09/27 04:17:26;;;;;;;8.63;7.82;;;;;;;11.42;100.00;101831.22;5028288;28;20100;-66
2023/09/27 04:19:53;;;;;;;7.78;7.00;;;;;;;11.40;100.00;101825.94;5029426;28;20380;-66
2023/09/27 04:22:18;;;;;;;8.43;7.68;;;;;;;11.38;100.00;101808.53;5028905;28;20501;-65
2023/09/27 04:24:44;;;;;;;8.70;7.40;;;;;;;11.37;100.00;101806.75;5029311;28;20112;-64
2023/09/27 04:27:09;;;;;;;8.25;7.50;;;;;;;11.37;100.00;101801.56;5029525;28;20037;-65
2023/09/27 04:29:35;;;;;;;9.18;8.35;;;;;;;11.35;100.00;101819.66;5030164;28;20045;-65
2023/09/27 04:32:00;;;;;;;7.53;6.82;;;;;;;11.33;100.00;101820.41;5029402;28;20025;-65
2023/09/27 04:34:25;;;;;;;10.82;7.72;;;;;;;11.31;100.00;101835.03;5030138;28;20029;-65
2023/09/27 04:36:51;;;;;;;10.13;8.27;;;;;;;11.28;100.00;101831.47;5027754;28;20477;-65
2023/09/27 04:39:17;;;;;;;8.95;8.05;;;;;;;11.27;100.00;101829.72;5033654;28;20024;-65
2023/09/27 04:41:46;;;;;;;8.60;7.35;;;;;;;11.26;100.00;101833.09;5035432;28;20025;-66
2023/09/27 04:44:11;;;;;;;7.85;7.07;;;;;;;11.23;100.00;101832.97;5045881;28;20017;-65
2023/09/27 04:46:36;;;;;;;8.02;7.22;;;;;;;11.23;100.00;101837.25;5046752;28;20043;-65
2023/09/27 04:49:02;;;;;;;7.85;7.05;;;;;;;11.22;100.00;101841.59;5046277;28;20053;-65
2023/09/27 04:51:28;;;;;;;7.75;7.05;;;;;;;11.20;100.00;101819.88;5046769;28;20024;-66
2023/09/27 04:53:53;;;;;;;7.93;7.22;;;;;;;11.18;100.00;101792.97;5045798;28;20438;-66
2023/09/27 04:56:18;;;;;;;8.00;7.22;;;;;;;11.17;100.00;101786.00;5046099;28;20040;-64
2023/09/27 04:58:43;;;;;;;7.65;6.88;;;;;;;11.17;100.00;101804.16;5029982;28;20029;-65
2023/09/27 05:01:10;;;;;;;8.27;7.47;;;;;;;11.16;100.00;101816.25;5032059;28;20037;-65
2023/09/27 05:03:36;;;;;;;7.93;7.15;;;;;;;11.17;100.00;101827.53;5029910;28;20091;-66
2023/09/27 05:06:02;;;;;;;8.52;7.40;;;;;;;11.15;100.00;101818.78;5032747;28;20104;-65
2023/09/27 05:08:27;;;;;;;8.30;7.50;;;;;;;11.12;100.00;101803.94;5030783;28;20045;-64
2023/09/27 05:10:52;;;;;;;7.40;6.72;;;;;;;11.11;100.00;101811.66;5036250;28;20111;-65
2023/09/27 05:13:21;;;;;;;7.60;6.85;;;;;;;11.11;100.00;101817.75;5021279;28;20049;-66
2023/09/27 05:15:49;;;;;;;8.82;7.63;;;;;;;11.10;100.00;101815.94;5021296;28;20485;-64
2023/09/27 05:18:14;;;;;;;7.68;7.03;;;;;;;11.11;100.00;101806.47;5011932;28;20136;-63
2023/09/27 05:20:40;;;;;;;9.30;8.50;;;;;;;11.10;100.00;101796.94;5020199;28;20064;-65
2023/09/27 05:23:05;;;;;;;7.90;7.20;;;;;;;11.08;100.00;101791.66;5009054;28;20026;-64
2023/09/27 05:25:31;;;;;;;8.73;7.82;;;;;;;11.09;100.00;101803.81;5016820;28;20049;-64
2023/09/27 05:27:57;;;;;;;8.68;7.50;;;;;;;11.08;100.00;101807.22;5019180;28;20029;-66
2023/09/27 05:30:22;;;;;;;9.18;7.40;;;;;;;11.08;100.00;101795.97;5025068;28;20164;-65
2023/09/27 05:32:47;;;;;;;8.10;7.40;;;;;;;11.10;100.00;101799.53;5025897;28;20064;-65
2023/09/27 05:35:13;;;;;;;8.77;7.97;;;;;;;11.10;100.00;101791.75;5022709;28;20033;-65
2023/09/27 05:37:42;;;;;;;8.75;7.97;;;;;;;11.09;100.00;101802.91;5024468;28;20061;-65
2023/09/27 05:40:09;;;;;;;8.10;7.38;;;;;;;11.07;100.00;101797.66;5015083;28;20065;-66
2023/09/27 05:42:35;;;;;;;7.47;6.78;;;;;;;11.05;100.00;101792.41;5025844;28;20025;-64
2023/09/27 05:45:01;;;;;;;8.57;7.53;;;;;;;11.03;100.00;101794.03;5020185;28;20037;-65
2023/09/27 05:47:26;;;;;;;8.82;8.05;;;;;;;11.02;100.00;101794.88;5030465;28;20051;-65
2023/09/27 05:49:51;;;;;;;7.85;7.20;;;;;;;11.02;100.00;101786.19;5030158;28;20493;-65
2023/09/27 05:52:17;;;;;;;8.88;8.07;;;;;;;11.01;100.00;101785.31;5030402;28;20021;-65
2023/09/27 05:54:42;;;;;;;8.85;8.05;;;;;;;11.03;100.00;101783.66;5043989;28;20435;-63
2023/09/27 05:57:08;;;;;;;8.93;8.05;;;;;;;11.02;100.00;101787.09;5037514;28;20017;-64
2023/09/27 05:59:33;;;;;;;8.60;7.80;;;;;;;11.04;100.00;101782.84;5036185;28;20036;-64
2023/09/27 06:01:59;;;;;;;8.40;7.70;;;;;;;11.07;100.00;101773.41;5030385;28;20025;-65
2023/09/27 06:04:24;;;;;;;9.18;8.38;;;;;;;11.09;100.00;101782.16;5030401;28;20033;-64
2023/09/27 06:06:50;;;;;;;9.75;8.75;;;;;;;11.10;100.00;101789.16;5049293;28;20053;-65
2023/09/27 06:09:16;;;;;;;10.10;8.93;;;;;;;11.11;100.00;101790.91;5049525;28;20036;-63
2023/09/27 06:11:41;;;;;;;8.57;7.85;;;;;;;11.10;100.00;101786.56;5049542;28;20029;-65
2023/09/27 06:14:10;;;;;;;9.02;8.13;;;;;;;11.11;100.00;101785.72;5048892;28;20029;-64
2023/09/27 06:16:37;;;;;;;10.40;9.43;;;;;;;11.12;100.00;101782.28;5048434;28;20021;-66
2023/09/27 06:19:04;;;;;;;9.80;8.77;;;;;;;11.12;100.00;101774.50;5047642;28;20017;-66
2023/09/27 06:21:29;;;;;;;10.25;8.35;;;;;;;11.16;100.00;101779.03;5044720;28;20366;-64
2023/09/27 06:23:54;;;;;;;10.25;8.32;;;;;;;11.14;100.00;101786.75;5041745;28;20040;-64
2023/09/27 06:26:21;;;;;;;11.20;9.30;;;;;;;11.18;100.00;101785.19;5034603;28;20027;-65
2023/09/27 06:28:46;;;;;;;10.40;9.27;;;;;;;11.23;100.00;101781.06;5032976;28;20148;-65
2023/09/27 06:31:13;;;;;;;11.60;10.50;;;;;;;11.27;100.00;101774.31;5042797;28;20548;-65
2023/09/27 06:33:43;;;;;;;11.32;10.32;;;;;;;11.32;100.00;101765.03;5039167;28;20041;-66
2023/09/27 06:36:10;;;;;;;11.93;10.77;;;;;;;11.39;100.00;101766.19;5032923;28;20033;-64
2023/09/27 06:38:36;;;;;;;10.60;9.57;;;;;;;11.47;100.00;101764.81;5039090;28;20029;-66
2023/09/27 06:41:02;;;;;;;11.05;9.88;;;;;;;11.56;100.00;101769.50;5035961;28;20021;-66
2023/09/27 06:43:29;;;;;;;10.30;9.18;;;;;;;11.63;100.00;101760.28;5042461;28;20032;-65
2023/09/27 06:45:54;;;;;;;11.65;10.07;;;;;;;11.72;100.00;101760.66;5036423;28;20112;-64
2023/09/27 06:48:20;;;;;;;13.68;11.13;;;;;;;11.82;100.00;101768.84;5042610;28;20020;-65
2023/09/27 06:50:47;;;;;;;12.68;11.32;;;;;;;11.91;100.00;101776.13;5037541;28;20033;-65
2023/09/27 06:53:13;;;;;;;13.07;11.95;;;;;;;12.01;100.00;101775.69;5043612;28;20480;-65
2023/09/27 06:55:39;;;;;;;15.13;13.55;;;;;;;12.12;100.00;101783.94;5037939;28;20112;-65
2023/09/27 06:58:04;;;;;;;14.18;12.65;;;;;;;12.21;100.00;101789.53;5041384;28;20096;-64
2023/09/27 07:00:29;;;;;;;14.88;13.38;;;;;;;12.31;100.00;101792.47;5034655;28;20543;-66
2023/09/27 07:02:54;;;;;;;15.07;13.63;;;;;;;12.39;100.00;101785.88;5041170;28;20037;-64
2023/09/27 07:05:23;;;;;;;14.18;12.73;;;;;;;12.47;100.00;101787.06;5040849;28;20029;-66
2023/09/27 07:07:49;;;;;;;14.15;12.77;;;;;;;12.53;100.00;101789.03;5042714;28;20096;-64
2023/09/27 07:10:15;;;;;;;13.73;12.52;;;;;;;12.61;100.00;101791.91;5040118;28;20492;-66
2023/09/27 07:12:41;;;;;;;15.27;13.68;;;;;;;12.66;100.00;101790.41;5043995;28;20059;-66
2023/09/27 07:15:09;;;;;;;14.80;13.50;;;;;;;12.70;100.00;101791.41;5041103;28;20057;-64
2023/09/27 07:17:35;;;;;;;14.23;12.90;;;;;;;12.73;100.00;101791.50;5044255;28;20103;-65
2023/09/27 07:20:03;;;;;;;13.55;12.30;;;;;;;12.77;100.00;101790.78;5042645;28;20139;-66
2023/09/27 07:22:31;;;;;;;15.27;13.13;;;;;;;12.80;100.00;101796.13;5044702;28;20477;-64
2023/09/27 07:24:56;;;;;;;13.68;12.48;;;;;;;12.85;100.00;101798.88;5047958;28;20029;-66
2023/09/27 07:27:21;;;;;;;13.25;12.15;;;;;;;12.88;100.00;101801.59;5046198;28;20027;-65
2023/09/27 07:29:48;;;;;;;13.20;12.00;;;;;;;12.91;100.00;101806.94;5027616;28;20029;-65
2023/09/27 07:32:15;;;;;;;14.57;13.20;;;;;;;12.94;100.00;101806.16;5027785;28;20026;-67
2023/09/27 07:34:40;;;;;;;13.27;11.95;;;;;;;12.96;100.00;101800.19;5028748;28;20492;-66
2023/09/27 07:37:08;;;;;;;14.13;12.82;;;;;;;13.00;100.00;101790.78;5041600;28;20029;-65
2023/09/27 07:39:33;;;;;;;14.75;13.10;;;;;;;13.05;100.00;101796.16;5034524;28;20021;-66
2023/09/27 07:41:58;;;;;;;13.75;12.45;;;;;;;13.11;100.00;101795.50;5047687;28;20020;-66
2023/09/27 07:44:26;;;;;;;16.00;12.43;;;;;;;13.22;100.00;101802.00;5047824;28;20302;-66
2023/09/27 07:46:51;;;;;;;15.00;13.75;;;;;;;13.41;100.00;101787.00;5034448;28;20025;-66
2023/09/27 07:49:17;;;;;;;13.60;12.40;;;;;;;13.76;100.00;101789.97;5047941;28;20469;-67
2023/09/27 07:51:42;;;;;;;12.48;11.32;;;;;;;13.98;100.00;101787.19;5032654;28;20074;-66
2023/09/27 07:54:08;;;;;;;12.32;11.18;;;;;;;14.19;100.00;101789.66;5030513;28;20029;-66
2023/09/27 07:56:39;;;;;;;13.15;11.77;;;;;;;14.32;100.00;101795.25;5033040;28;20451;-66
2023/09/27 07:59:05;;;;;;;14.23;11.25;;;;;;;14.45;100.00;101797.41;5030778;28;20021;-67
2023/09/27 08:01:30;;;;;;;13.05;9.95;;;;;;;14.73;100.00;101797.38;5041312;28;20032;-65
2023/09/27 08:04:06;;;;;;;11.05;10.10;;;;;;;15.00;100.00;101801.66;5045733;28;20032;-66
2023/09/27 08:06:33;;;;;;;12.02;10.05;;;;;;;15.29;100.00;101798.97;5043760;28;20056;-66
2023/09/27 08:08:58;;;;;;;10.43;9.55;;;;;;;15.58;100.00;101791.03;5038213;28;20425;-65
2023/09/27 08:11:23;;;;;;;10.13;9.15;;;;;;;16.04;100.00;101795.72;5035197;28;20021;-66
2023/09/27 08:13:49;;;;;;;10.40;9.50;;;;;;;16.37;100.00;101803.44;5040086;28;20064;-66
2023/09/27 08:16:14;;;;;;;9.93;8.55;;;;;;;16.74;100.00;101819.09;5038310;28;20029;-66
2023/09/27 08:18:42;;;;;;;9.77;8.88;;;;;;;16.92;100.00;101818.59;5040130;28;20052;-66
2023/09/27 08:21:08;;;;;;;9.32;8.43;;;;;;;17.13;100.00;101817.28;5038804;28;20028;-66
2023/09/27 08:23:33;;;;;;;11.02;8.20;;;;;;;17.28;100.00;101825.47;5036765;28;20033;-66
2023/09/27 08:25:58;;;;;;;9.63;8.80;;;;;;;17.51;100.00;101825.03;5036789;28;20041;-66
2023/09/27 08:28:24;;;;;;;9.50;8.65;;;;;;;17.46;100.00;101829.31;5034512;28;20108;-66
2023/09/27 08:30:49;;;;;;;9.95;8.18;;;;;;;17.44;100.00;101835.34;5036670;28;20037;-66
2023/09/27 08:33:14;;;;;;;10.85;8.35;;;;;;;17.72;100.00;101844.63;5034062;28;20030;-66
2023/09/27 08:35:42;;;;;;;12.07;8.65;;;;;;;18.05;100.00;101839.06;5036849;28;20116;-66
2023/09/27 08:38:08;;;;;;;9.43;8.63;;;;;;;18.37;100.00;101841.34;5031590;28;20055;-67
2023/09/27 08:40:34;;;;;;;11.43;8.52;;;;;;;18.63;100.00;101834.72;5029820;28;20025;-65
2023/09/27 08:43:00;;;;;;;9.23;8.15;;;;;;;18.93;100.00;101838.63;5047231;28;20086;-67
2023/09/27 08:45:27;;;;;;;9.63;8.35;;;;;;;19.14;100.00;101834.53;5047100;28;20033;-67
2023/09/27 08:47:54;;;;;;;9.35;8.43;;;;;;;19.34;100.00;101847.03;5046759;28;20028;-66
2023/09/27 08:50:20;;;;;;;8.95;8.05;;;;;;;19.53;100.00;101841.13;5043677;28;20029;-67
2023/09/27 08:52:50;;;;;;;8.77;7.95;;;;;;;19.58;100.00;101829.75;5026901;28;20382;-67
2023/09/27 08:55:16;;;;;;;8.95;8.05;;;;;;;19.70;100.00;101826.38;5043532;28;20017;-67
2023/09/27 08:57:46;;;;;;;8.65;7.75;;;;;;;19.60;100.00;101822.75;5047325;28;20115;-67
2023/09/27 09:00:19;;;;;;;8.68;7.82;;;;;;;19.61;100.00;101824.53;5045552;28;20028;-67
2023/09/27 09:02:49;;;;;;;8.98;8.18;;;;;;;19.73;100.00;101826.41;5046333;28;20380;-67
2023/09/27 09:05:16;;;;;;;8.20;7.50;;;;;;;19.85;100.00;101826.50;5046194;28;20020;-67
2023/09/27 09:07:41;;;;;;;8.82;7.95;;;;;;;19.86;100.00;101824.75;5046419;28;20053;-67
2023/09/27 09:10:13;;;;;;;9.52;8.50;;;;;;;19.89;100.00;101825.66;5033275;28;20031;-67
2023/09/27 09:12:39;;;;;;;9.18;8.27;;;;;;;19.76;100.00;101826.41;5037927;28;20044;-67
2023/09/27 09:15:05;;;;;;;10.50;9.48;;;;;;;19.55;100.00;101828.84;5032120;28;20091;-67
2023/09/27 09:17:34;;;;;;;10.52;9.63;;;;;;;19.35;100.00;101815.50;5037351;28;20033;-66
2023/09/27 09:20:15;;;;;;;12.70;10.38;;;;;;;19.22;100.00;101809.22;5029325;28;20021;-67
2023/09/27 09:22:45;;;;;;;12.43;11.25;;;;;;;19.07;100.00;101809.88;5041635;28;20622;-67
2023/09/27 09:25:10;;;;;;;14.18;12.65;;;;;;;18.85;100.00;101812.28;5041559;28;20503;-67
2023/09/27 09:27:37;;;;;;;12.98;11.80;;;;;;;18.83;100.00;101808.75;5040393;28;20334;-67
2023/09/27 09:30:06;;;;;;;13.95;12.57;;;;;;;18.56;100.00;101813.66;5045801;28;20039;-67
2023/09/27 09:32:32;;;;;;;13.80;12.40;;;;;;;18.50;100.00;101797.81;5044784;28;20473;-67
2023/09/27 09:34:57;;;;;;;12.90;11.63;;;;;;;18.47;100.00;101801.25;5046170;28;20071;-66
2023/09/27 09:37:29;;;;;;;13.90;12.55;;;;;;;18.52;100.00;101796.09;5041607;28;20409;-67
2023/09/27 09:40:15;;;;;;;13.55;12.23;;;;;;;18.57;100.00;101794.41;5030475;28;20033;-67
2023/09/27 09:42:42;;;;;;;14.40;13.02;;;;;;;18.51;100.00;101789.06;5033902;28;20029;-67
2023/09/27 09:45:11;;;;;;;15.10;13.80;;;;;;;18.41;100.00;101787.16;5045689;28;20064;-67
2023/09/27 09:47:39;;;;;;;15.38;14.07;;;;;;;18.34;100.00;101786.22;5021510;28;20039;-65
2023/09/27 09:50:12;;;;;;;13.85;12.57;;;;;;;18.38;100.00;101782.78;5031763;28;20087;-67
2023/09/27 09:52:39;;;;;;;16.00;14.52;;;;;;;18.36;100.00;101784.50;5027153;28;20450;-67
2023/09/27 09:55:11;;;;;;;15.80;14.18;;;;;;;18.42;100.00;101776.69;5029123;28;20033;-67
2023/09/27 09:57:41;;;;;;;14.65;13.45;;;;;;;18.46;100.00;101765.38;5030916;28;20413;-67
2023/09/27 10:00:17;;;;;;;15.63;14.32;;;;;;;18.56;100.00;101762.91;5030240;28;20024;-67
2023/09/27 10:02:53;;;;;;;13.63;12.32;;;;;;;18.59;100.00;101755.06;5031089;28;20560;-66
2023/09/27 10:05:19;;;;;;;12.80;11.65;;;;;;;18.69;100.00;101759.56;5030936;28;20572;-67
2023/09/27 10:07:45;;;;;;;12.70;11.55;;;;;;;18.77;100.00;101758.78;5030655;28;20049;-66
2023/09/27 10:10:13;;;;;;;13.07;11.90;;;;;;;18.85;100.00;101751.91;5036432;28;20389;-67
2023/09/27 10:12:41;;;;;;;12.38;11.18;;;;;;;18.94;100.00;101746.72;5049761;28;20424;-65
2023/09/27 10:15:08;;;;;;;12.40;11.10;;;;;;;19.03;100.00;101738.06;5023909;28;20049;-67
2023/09/27 10:17:33;;;;;;;11.13;10.13;;;;;;;19.06;100.00;101740.75;5044526;28;20041;-67
2023/09/27 10:20:14;;;;;;;10.75;9.45;;;;;;;19.12;100.00;101747.84;5050477;28;20024;-67
2023/09/27 10:22:40;;;;;;;13.02;10.57;;;;;;;19.20;100.00;101747.91;5033575;28;20381;-67
2023/09/27 10:25:32;;;;;;;10.43;9.38;;;;;;;19.33;100.00;101759.44;5029566;28;20025;-67
2023/09/27 10:28:12;;;;;;;11.20;8.52;;;;;;;19.46;100.00;101764.81;5029522;28;20048;-67
2023/09/27 10:30:40;;;;;;;10.50;9.48;;;;;;;19.58;100.00;101764.91;5041590;28;20131;-67
2023/09/27 10:33:14;;;;;;;11.05;9.90;;;;;;;19.62;100.00;101765.81;5037530;28;20036;-65
2023/09/27 10:35:39;;;;;;;8.82;7.93;;;;;;;19.69;100.00;101751.88;5048897;28;20500;-67
2023/09/27 10:38:09;;;;;;;7.68;6.97;;;;;;;19.78;100.00;101740.53;5039893;28;20026;-65
2023/09/27 10:40:45;;;;;;;7.45;6.75;;;;;;;19.79;100.00;101731.78;5044818;28;20041;-67
2023/09/27 10:43:38;;;;;;;8.70;7.60;;;;;;;19.80;100.00;101717.78;5048856;28;20029;-67
2023/09/27 10:46:04;;;;;;;6.90;6.20;;;;;;;19.86;100.00;101720.44;5048863;28;20029;-66
2023/09/27 10:48:37;;;;;;;6.82;6.05;;;;;;;19.87;100.00;101722.22;5047914;28;20029;-67
2023/09/27 10:51:03;;;;;;;6.05;5.45;;;;;;;20.00;100.00;101719.66;5048674;28;20401;-67
2023/09/27 10:53:29;;;;;;;7.68;6.07;;;;;;;20.01;100.00;101721.41;5041717;28;20025;-67
2023/09/27 10:55:55;;;;;;;7.05;6.10;;;;;;;20.11;100.00;101718.00;5045011;28;20025;-67
2023/09/27 10:58:21;;;;;;;7.05;4.97;;;;;;;20.24;100.00;101708.44;5045687;28;20036;-67
2023/09/27 11:01:04;;;;;;;5.40;4.90;;;;;;;20.34;100.00;101703.22;5040062;28;20060;-66
2023/09/27 11:03:30;;;;;;;7.10;5.55;;;;;;;20.42;100.00;101698.00;5042906;28;20025;-66
2023/09/27 11:06:06;;;;;;;7.00;5.63;;;;;;;20.42;100.00;101688.34;5046388;28;20047;-67
2023/09/27 11:08:32;;;;;;;6.88;6.00;;;;;;;20.50;100.00;101688.38;5044340;28;20045;-66
2023/09/27 11:10:58;;;;;;;7.18;5.32;;;;;;;20.46;100.00;101687.47;5048003;28;20127;-67